createdAt,value
2022-11-17T00:01:27.364Z,97179.28
2022-11-17T00:04:00.511Z,97170.44
2022-11-17T00:20:17.356Z,97150.53
2022-11-17T00:22:50.551Z,97146.22
2022-11-17T00:25:31.366Z,97156.03
2022-11-17T00:28:04.739Z,97154.34
2022-11-17T00:47:11.324Z,97165.06
2022-11-17T00:49:51.344Z,97161.50
2022-11-17T00:52:24.605Z,97170.16
2022-11-17T00:54:51.260Z,97166.78
2022-11-17T00:57:41.704Z,97174.41
2022-11-17T01:00:15.070Z,97177.16
2022-11-17T01:13:05.323Z,97157.38
2022-11-17T01:15:45.344Z,97153.03
2022-11-17T01:18:18.550Z,97148.59
2022-11-17T01:20:45.255Z,97140.78
2022-11-17T01:23:25.468Z,97134.00
2022-11-17T01:26:03.134Z,97142.84
2022-11-17T01:39:00.350Z,97120.44
2022-11-17T01:41:40.329Z,97122.53
2022-11-17T01:44:53.535Z,97130.53
2022-11-17T01:47:45.433Z,97119.22
2022-11-17T01:50:32.145Z,97124.50
2022-11-17T02:06:55.408Z,97113.50
2022-11-17T02:09:29.602Z,97112.53
2022-11-17T02:12:05.338Z,97112.53
2022-11-17T02:14:39.872Z,97107.38
2022-11-17T02:17:15.386Z,97103.91
2022-11-17T02:20:03.450Z,97103.91
2022-11-17T02:33:10.348Z,97105.94
2022-11-17T02:35:59.324Z,97093.78
2022-11-17T02:38:42.004Z,97090.31
2022-11-17T02:41:31.354Z,97090.31
2022-11-17T02:44:12.256Z,97093.22
2022-11-17T03:00:37.308Z,97088.25
2022-11-17T03:03:37.463Z,97097.84
2022-11-17T03:06:32.309Z,97103.22
2022-11-17T03:09:15.541Z,97100.56
2022-11-17T03:12:05.313Z,97099.91
2022-11-17T03:14:52.220Z,97103.09
2022-11-17T03:25:07.340Z,97104.06
2022-11-17T03:27:47.604Z,97105.09
2022-11-17T03:30:27.329Z,97095.31
2022-11-17T03:33:08.910Z,97085.63
2022-11-17T03:35:54.308Z,97087.50
2022-11-17T03:38:36.083Z,97091.06
2022-11-17T03:41:20.311Z,97087.66
2022-11-17T03:51:50.272Z,97093.97
2022-11-17T03:54:32.875Z,97087.88
2022-11-17T03:57:16.643Z,97087.00
2022-11-17T04:00:04.344Z,97088.91
2022-11-17T04:02:41.995Z,97088.91
2022-11-17T04:05:23.352Z,97094.84
2022-11-17T04:18:43.347Z,97081.75
2022-11-17T04:21:17.040Z,97072.06
2022-11-17T04:23:50.283Z,97072.06
2022-11-17T04:26:24.220Z,97072.91
2022-11-17T04:28:57.316Z,97070.34
2022-11-17T04:31:31.566Z,97080.91
2022-11-17T04:34:09.333Z,97080.91
2022-11-17T04:47:19.304Z,97094.38
2022-11-17T04:49:54.400Z,97090.91
2022-11-17T04:52:29.945Z,97088.25
2022-11-17T04:55:04.306Z,97093.31
2022-11-17T04:57:37.776Z,97092.38
2022-11-17T05:00:14.210Z,97094.38
2022-11-17T05:13:04.326Z,97072.44
2022-11-17T05:15:44.286Z,97076.69
2022-11-17T05:18:17.416Z,97075.84
2022-11-17T05:20:44.073Z,97074.97
2022-11-17T05:23:24.287Z,97074.88
2022-11-17T05:25:57.457Z,97066.97
2022-11-17T05:39:02.276Z,97079.47
2022-11-17T05:41:43.359Z,97068.22
2022-11-17T05:44:16.433Z,97065.56
2022-11-17T05:46:43.165Z,97063.03
2022-11-17T05:49:23.298Z,97068.22
2022-11-17T05:51:56.531Z,97069.03
2022-11-17T05:54:31.281Z,97069.91
2022-11-17T06:07:42.296Z,97057.00
2022-11-17T06:10:17.721Z,97055.31
2022-11-17T06:12:51.304Z,97059.75
2022-11-17T06:15:24.702Z,97050.03
2022-11-17T06:18:04.349Z,97053.50
2022-11-17T06:20:43.846Z,97042.88
2022-11-17T06:33:43.235Z,97050.03
2022-11-17T06:36:23.287Z,97047.50
2022-11-17T06:38:57.009Z,97040.53
2022-11-17T06:41:37.263Z,97041.38
2022-11-17T06:44:10.438Z,97042.34
2022-11-17T07:00:26.268Z,97054.25
2022-11-17T07:03:00.244Z,97056.81
2022-11-17T07:05:33.778Z,97063.78
2022-11-17T07:08:09.249Z,97061.13
2022-11-17T07:10:49.165Z,97057.56
2022-11-17T07:13:24.244Z,97054.94
2022-11-17T07:15:59.304Z,97052.19
2022-11-17T07:25:59.228Z,97037.25
2022-11-17T07:28:41.273Z,97042.31
2022-11-17T07:31:16.443Z,97043.16
2022-11-17T07:33:50.260Z,97047.56
2022-11-17T07:36:23.320Z,97042.31
2022-11-17T07:39:03.271Z,97042.13
2022-11-17T07:52:45.255Z,97060.47
2022-11-17T07:55:18.901Z,97061.31
2022-11-17T07:57:52.273Z,97053.41
2022-11-17T08:00:27.355Z,97047.00
2022-11-17T08:03:00.272Z,97045.22
2022-11-17T08:05:41.715Z,97047.00
2022-11-17T08:19:23.211Z,97039.66
2022-11-17T08:22:05.248Z,97024.47
2022-11-17T08:24:38.496Z,97019.09
2022-11-17T08:27:05.211Z,97025.13
2022-11-17T08:29:45.264Z,97026.84
2022-11-17T08:32:18.524Z,97030.41
2022-11-17T08:34:52.273Z,97032.94
2022-11-17T08:48:04.248Z,97027.31
2022-11-17T08:50:37.474Z,97028.13
2022-11-17T08:53:04.193Z,97034.19
2022-11-17T08:55:44.312Z,97022.69
2022-11-17T08:58:17.476Z,97019.94
2022-11-17T09:00:51.307Z,97018.91
2022-11-17T09:14:02.773Z,97045.09
2022-11-17T09:16:37.160Z,97050.16
2022-11-17T09:19:10.237Z,97042.25
2022-11-17T09:21:43.521Z,97035.19
2022-11-17T09:24:17.293Z,97035.19
2022-11-17T09:40:54.208Z,97028.88
2022-11-17T09:43:37.240Z,97026.22
2022-11-17T09:46:17.701Z,97038.47
2022-11-17T09:49:08.223Z,97038.38
2022-11-17T09:51:48.017Z,97047.88
2022-11-17T09:54:53.238Z,97052.22
2022-11-17T10:08:12.216Z,97045.78
2022-11-17T10:10:49.937Z,97052.88
2022-11-17T10:16:21.111Z,97045.59
2022-11-17T10:18:54.343Z,97047.25
2022-11-17T10:21:27.241Z,97039.28
2022-11-17T10:34:42.231Z,97052.59
2022-11-17T10:37:29.726Z,97060.41
2022-11-17T10:40:25.977Z,97069.09
2022-11-17T10:43:22.936Z,97064.53
2022-11-17T10:46:08.245Z,97063.59
2022-11-17T11:00:01.210Z,97036.78
2022-11-17T11:02:37.166Z,97038.31
2022-11-17T11:05:21.229Z,97034.69
2022-11-17T11:08:21.115Z,97032.16
2022-11-17T11:11:05.228Z,97022.34
2022-11-17T11:13:49.424Z,97027.53
2022-11-17T11:26:48.181Z,97001.75
2022-11-17T11:29:43.220Z,97007.88
2022-11-17T11:32:33.428Z,96999.88
2022-11-17T11:35:45.232Z,96992.78
2022-11-17T11:38:49.620Z,96985.72
2022-11-17T11:55:05.207Z,96981.16
2022-11-17T11:57:48.240Z,96975.78
2022-11-17T12:00:28.192Z,96979.41
2022-11-17T12:03:15.187Z,96966.91
2022-11-17T12:06:12.213Z,96969.56
2022-11-17T12:09:00.548Z,96979.16
2022-11-17T12:21:20.180Z,96983.41
2022-11-17T12:24:21.214Z,96991.19
2022-11-17T12:27:48.112Z,96977.06
2022-11-17T12:30:57.213Z,96963.66
2022-11-17T12:34:21.788Z,96951.41
2022-11-17T12:47:25.176Z,96958.16
2022-11-17T12:50:50.195Z,96957.94
2022-11-17T12:53:51.745Z,96958.91
2022-11-17T12:56:59.215Z,96957.94
2022-11-17T13:00:03.558Z,96960.59
2022-11-17T13:13:46.864Z,96948.53
2022-11-17T13:16:29.185Z,96943.25
2022-11-17T13:19:03.830Z,96928.38
2022-11-17T13:21:40.229Z,96934.59
2022-11-17T13:24:29.593Z,96933.66
2022-11-17T13:27:12.220Z,96928.38
2022-11-17T13:29:45.433Z,96931.84
2022-11-17T13:42:38.151Z,96941.78
2022-11-17T13:45:22.195Z,96953.28
2022-11-17T13:47:56.657Z,96946.13
2022-11-17T13:50:43.164Z,96945.16
2022-11-17T13:53:24.802Z,96931.22
2022-11-17T13:56:05.166Z,96930.28
2022-11-17T14:09:17.238Z,96927.81
2022-11-17T14:11:50.774Z,96926.16
2022-11-17T14:14:33.168Z,96923.53
2022-11-17T14:17:18.942Z,96938.63
2022-11-17T14:19:59.173Z,96939.56
2022-11-17T14:33:54.208Z,96932.69
2022-11-17T14:36:31.432Z,96931.88
2022-11-17T14:39:19.171Z,96922.25
2022-11-17T14:41:52.423Z,96928.47
2022-11-17T14:44:19.104Z,96932.06
2022-11-17T14:46:59.159Z,96929.53
2022-11-17T14:49:32.381Z,96934.06
2022-11-17T15:02:22.126Z,96951.91
2022-11-17T15:05:02.267Z,96944.94
2022-11-17T15:07:35.481Z,96953.81
2022-11-17T15:10:10.207Z,96951.25
2022-11-17T15:12:43.440Z,96956.66
2022-11-17T15:15:17.182Z,96957.59
2022-11-17T15:28:30.496Z,96955.25
2022-11-17T15:31:13.365Z,96954.44
2022-11-17T15:33:54.149Z,96951.78
2022-11-17T15:36:32.790Z,96943.88
2022-11-17T15:39:13.382Z,96939.84
2022-11-17T15:55:50.132Z,96949.78
2022-11-17T15:58:30.168Z,96951.56
2022-11-17T16:01:12.838Z,96953.38
2022-11-17T16:03:53.152Z,96955.16
2022-11-17T16:06:27.423Z,96953.38
2022-11-17T16:09:01.173Z,96955.25
2022-11-17T16:11:37.072Z,96948.28
2022-11-17T16:21:09.156Z,96950.19
2022-11-17T16:23:48.740Z,96946.06
2022-11-17T16:26:24.139Z,96945.09
2022-11-17T16:29:01.935Z,96939.06
2022-11-17T16:31:43.658Z,96936.56
2022-11-17T16:34:17.345Z,96937.50
2022-11-17T16:49:51.619Z,96931.56
2022-11-17T16:52:25.343Z,96936.84
2022-11-17T16:55:05.418Z,96931.78
2022-11-17T16:57:41.498Z,96930.94
2022-11-17T17:00:17.116Z,96930.00
2022-11-17T17:16:54.105Z,96936.44
2022-11-17T17:19:34.136Z,96941.69
2022-11-17T17:22:07.325Z,96945.28
2022-11-17T17:24:33.984Z,96946.22
2022-11-17T17:27:14.160Z,96942.63
2022-11-17T17:29:47.443Z,96950.44
2022-11-17T17:42:38.101Z,96960.28
2022-11-17T17:45:18.128Z,96953.31
2022-11-17T17:47:51.315Z,96948.03
2022-11-17T17:50:25.144Z,96948.03
2022-11-17T17:52:58.332Z,96948.03
2022-11-17T17:55:32.129Z,96945.38
2022-11-17T18:08:45.121Z,96946.34
2022-11-17T18:11:21.614Z,96940.22
2022-11-17T18:13:57.192Z,96943.69
2022-11-17T18:16:32.828Z,96936.00
2022-11-17T18:19:09.139Z,96940.31
2022-11-17T18:21:42.687Z,96941.28
2022-11-17T18:34:48.092Z,96940.41
2022-11-17T18:37:28.309Z,96941.28
2022-11-17T18:40:01.389Z,96939.47
2022-11-17T18:42:28.129Z,96941.28
2022-11-17T18:45:08.144Z,96936.19
2022-11-17T18:47:41.301Z,96941.28
2022-11-17T18:50:17.105Z,96938.63
2022-11-17T19:03:27.117Z,96941.47
2022-11-17T19:06:04.864Z,96937.13
2022-11-17T19:08:45.187Z,96935.34
2022-11-17T19:11:21.279Z,96929.22
2022-11-17T19:13:55.108Z,96931.13
2022-11-17T19:16:29.575Z,96931.13
2022-11-17T19:29:20.232Z,96930.91
2022-11-17T19:32:00.119Z,96924.81
2022-11-17T19:34:33.297Z,96928.28
2022-11-17T19:36:59.968Z,96933.44
2022-11-17T19:39:41.407Z,96935.44
2022-11-17T19:56:18.063Z,96930.91
2022-11-17T19:58:59.096Z,96927.34
2022-11-17T20:01:33.020Z,96927.22
2022-11-17T20:04:07.118Z,96929.22
2022-11-17T20:06:40.336Z,96929.03
2022-11-17T20:09:15.684Z,96923.75
2022-11-17T20:22:28.083Z,96940.53
2022-11-17T20:25:09.104Z,96936.94
2022-11-17T20:27:49.091Z,96930.72
2022-11-17T20:30:22.394Z,96920.16
2022-11-17T20:32:49.064Z,96927.13
2022-11-17T20:35:29.073Z,96927.13
2022-11-17T20:48:41.190Z,96917.44
2022-11-17T20:51:16.623Z,96910.44
2022-11-17T20:53:50.097Z,96916.56
2022-11-17T20:56:23.296Z,96924.41
2022-11-17T20:58:49.983Z,96921.84
2022-11-17T21:01:30.122Z,96919.19
2022-11-17T21:15:17.100Z,96907.94
2022-11-17T21:17:50.552Z,96908.75
2022-11-17T21:20:24.102Z,96911.28
2022-11-17T21:22:57.308Z,96914.91
2022-11-17T21:25:31.067Z,96918.47
2022-11-17T21:28:04.712Z,96924.59
2022-11-17T21:30:40.080Z,96918.47
2022-11-17T21:43:54.136Z,96925.84
2022-11-17T21:46:32.746Z,96929.22
2022-11-17T21:49:20.077Z,96933.66
2022-11-17T21:51:53.265Z,96929.22
2022-11-17T21:54:27.165Z,96931.97
2022-11-17T22:11:09.036Z,96961.09
2022-11-17T22:13:49.149Z,96948.06
2022-11-17T22:16:23.725Z,96943.03
2022-11-17T22:18:57.061Z,96930.66
2022-11-17T22:21:31.875Z,96926.44
2022-11-17T22:24:05.076Z,96943.22
2022-11-17T22:26:47.750Z,96934.44
2022-11-17T22:36:26.064Z,96925.34
2022-11-17T22:38:59.282Z,96918.34
2022-11-17T22:41:25.948Z,96921.94
2022-11-17T22:44:08.588Z,96926.47
2022-11-17T22:46:42.473Z,96939.63
2022-11-17T22:49:16.323Z,96948.53
2022-11-17T22:51:49.299Z,96943.44
2022-11-17T23:04:39.019Z,96955.47
2022-11-17T23:07:25.141Z,96957.16
2022-11-17T23:09:58.226Z,96947.47
2022-11-17T23:12:32.077Z,96955.28
2022-11-17T23:15:07.545Z,96944.50
2022-11-17T23:31:24.064Z,96918.16
2022-11-17T23:33:57.380Z,96921.66
2022-11-17T23:36:31.150Z,96925.34
2022-11-17T23:39:04.387Z,96927.22
2022-11-17T23:41:38.036Z,96925.50
2022-11-17T23:44:11.286Z,96932.50
2022-11-17T23:46:46.886Z,96937.75
2022-11-17T23:56:32.010Z,96925.34
2022-11-17T23:59:12.049Z,96927.84
